Observations for WELLINGTON INTL, New Zealand (NZWN)

NZWN 180530Z AUTO 19006KT 6000 RA FEW008/// BKN039/// OVC050/// 11/10 Q1002 TEMPO 4000 RA   
NZWN 180500Z AUTO 22009KT 8000 -RA OVC055/// 11/10 Q1002 RERA TEMPO 4000 RA BKN012  
NZWN 180430Z AUTO 20012KT 5000 RA BR FEW026/// BKN031/// BKN038/// 11/10 Q1001 TEMPO 4000 RA BKN012 
NZWN 180400Z AUTO 19006KT 160V240 9000 -RA BKN023/// OVC032/// 11/10 Q1002 RERA TEMPO 4000 RA BKN012
NZWN 180330Z AUTO 16006KT 9999 -RA SCT038/// BKN049/// 12/10 Q1002 TEMPO 4000 RA BKN008 
NZWN 180300Z AUTO 18005KT 150V230 9999 -RA BKN046/// BKN060/// OVC080/// 12/11 Q1002 TEMPO 4000 RA BKN008   
NZWN 180230Z AUTO 17001KT 9999 -RA FEW023/// SCT049/// BKN070/// 12/10 Q1002 REDZ TEMPO 4000 RA BKN008  
NZWN 180200Z AUTO 10004KT 070V130 9999 -RA OVC023/// 12/10 Q1003 REDZ TEMPO 4000 RA BKN008  
NZWN 180130Z AUTO 35001KT 9999 -RA BKN025/// BKN065/// 12/10 Q1003 TEMPO 4000 RA BKN008 
NZWN 180100Z AUTO 01003KT 9999 -RA FEW060/// BKN080/// 12/10 Q1004 TEMPO 4000 RA BKN008 
NZWN 180030Z AUTO 01005KT 9999 -RA FEW055/// SCT075/// OVC095/// 12/10 Q1004 TEMPO 4000 RA BKN008   
NZWN 180000Z AUTO 36008KT 9999 BKN085/// 12/10 Q1005 TEMPO 4000 RA BKN008   
NZWN 172330Z AUTO 02006KT 9999 FEW028/// BKN090/// 13/10 Q1005 TEMPO 4000 RA BKN008 
NZWN 172300Z AUTO 02007KT 9999 SCT100/// 12/10 Q1006 NOSIG  
NZWN 172230Z AUTO 01010KT 9999 FEW100/// 12/10 Q1006 NOSIG  
NZWN 172200Z AUTO 36010KT 9999 NCD 11/10 Q1006 TEMPO BKN010 TEMPO FM2230 5000 SHRA FEW020TCU
NZWN 172130Z AUTO 36010KT 9999 FEW016/// 11/09 Q1006 TEMPO BKN010 TEMPO FM2230 5000 SHRA FEW020TCU  
NZWN 172100Z AUTO 02013KT 9999 BKN013/// 12/10 Q1006 TEMPO BKN018 TEMPO FM2200 5000 SHRA FEW020TCU  
NZWN 172030Z AUTO 02011KT 9999 BKN012/// OVC017/// 11/09 Q1006 TEMPO BKN018 TEMPO FM2100 5000 SHRA FEW020TCU
NZWN 172000Z AUTO 02010KT 9999 BKN016/// 11/09 Q1006 TEMPO FM2100 5000 SHRA FEW020TCU   
NZWN 171930Z AUTO 02009KT 9999 FEW015/// SCT023/// 11/09 Q1006 NOSIG
NZWN 171900Z AUTO 02011KT 9999 FEW014/// BKN022/// BKN029/// 12/10 Q1006 NOSIG  
NZWN 171830Z AUTO 02011KT 9999 FEW017/// BKN027/// 11/09 Q1006 NOSIG
NZWN 171800Z AUTO 02009KT 9999 BKN017/// BKN026/// OVC032/// 11/09 Q1007 NOSIG  
NZWN 171730Z AUTO 02009KT 9999 SCT019/// OVC029/// 11/09 Q1007 NOSIG
NZWN 171700Z AUTO 02010KT 9999 BKN017/// BKN025/// OVC031/// 11/09 Q1007 NOSIG  
NZWN 171630Z AUTO 01009KT 9999 BKN020/// BKN025/// OVC033/// 11/09 Q1007 NOSIG  
NZWN 171600Z AUTO 36013KT 9999 BKN020/// BKN028/// 11/09 Q1007 NOSIG
NZWN 171530Z AUTO 02011KT 9999 FEW021/// 10/09 Q1008 NOSIG  
NZWN 171500Z AUTO 02010KT 9999 FEW018/// 10/09 Q1008 NOSIG  
NZWN 171430Z AUTO 02007KT 9999 NCD 10/08 Q1008 NOSIG
NZWN 171400Z AUTO 01010KT 9999 FEW095/// 11/08 Q1008 NOSIG  
NZWN 171330Z AUTO 01010KT 9999 SCT095/// 11/08 Q1008 NOSIG  
NZWN 171300Z AUTO 01011KT 9999 SCT090/// 11/08 Q1008 NOSIG  
NZWN 171230Z AUTO 03010KT 9999 BKN085/// 11/08 Q1008 NOSIG  
NZWN 171200Z AUTO 02007KT 9999 -RA BKN075/// OVC090/// 11/08 Q1008 NOSIG
NZWN 171130Z AUTO 34009KT 9999 -RA BKN070/// OVC090/// 12/07 Q1009 NOSIG
NZWN 171100Z AUTO 32012G22KT 9999 -RA BKN070/// 12/07 Q1009 TEMPO TSRA FEW020CB 
NZWN 171030Z AUTO 32010KT 9999 -RA FEW055/// SCT070/// OVC095/// 13/10 Q1008 TEMPO TSRA FEW020CB
NZWN 171000Z AUTO 04007KT 320V090 9999 FEW021/// SCT080/// OVC100/// 13/09 Q1008 TEMPO TSRA FEW020CB
NZWN 170930Z AUTO 03008KT 9999 FEW095/// 13/09 Q1008 TEMPO FM1000 3000 TSRA FEW020CB
NZWN 170900Z AUTO 01009KT 9999 NCD 13/10 Q1008 NOSIG
NZWN 170830Z AUTO 03008KT 9999 NCD 13/09 Q1008 NOSIG
NZWN 170800Z AUTO 04008KT 010V070 9999 NCD 13/09 Q1008 NOSIG
NZWN 170730Z AUTO 03011KT 9999 NCD 13/09 Q1008 NOSIG
NZWN 170700Z AUTO 03010KT 9999 NCD 13/09 Q1009 NOSIG
NZWN 170630Z AUTO 36010KT 9999 NCD 12/09 Q1008 NOSIG
NZWN 170600Z AUTO 01010KT 9999 NCD 13/08 Q1008 NOSIG
NZWN 170530Z AUTO 02010KT 9999 NCD 13/08 Q1008 NOSIG
NZWN 170500Z AUTO 02007KT 340V060 9999 NCD 13/08 Q1008 NOSIG